KGLE/GLE METAR and TAF weather

Enter ICAO airport designator
Station Type Date Time Source
KGLE METAR 2019/08/22 06:55 UTC NOAA

KGLE 220655Z AUTO 16003KT 10SM CLR 26/21 A2994 RMK AO2 T02600210


Station Type Date Time Source
KGLE Decoded METAR 2019/08/22 06:55 UTC NOAA

Station name not available
Aug 22, 2019 - 02:55 AM EDT / 2019.08.22 0655 UTC
Wind: from the SSE (160 degrees) at 3 MPH (3 KT):0
Visibility: 10 mile(s):0
Sky conditions: clear
Temperature: 78.8 F (26.0 C)
Dew Point: 69.8 F (21.0 C)
Relative Humidity: 73%
Pressure (altimeter): 29.94 in. Hg (1013 hPa)
ob: KGLE 220655Z AUTO 16003KT 10SM CLR 26/21 A2994 RMK AO2 T02600210
cycle: 7

Station Type Date Time Source
KGLE TAF UTC NOAA

Error!

Example: see airport list